Wilton, North Dakota
Current Conditions -  °F | °C
As of 3:52 AM on Sunday 23 Nov 2014 (Local Time) from KBIS Reporting Station
Clear Clear  
Wind Chill: 31°   Ceiling: Unl
Heat Index: 38°   Visibility: 10mi
Dew Point: 33°   Wind: 9mph
Humidity: 83%   Direction: 270°W
Pressure: 29.44"   Gusts: NA
Location:  47.16°N, 100.78°W
Report Text: KBIS 230952Z 27008KT 10SM CLR 03/01 A2944 RMK AO2 SLP981 T00330006
Loading
Personal Weather Stations






























Interactive Weather Map New forecast layout! Learn more

10-Day Weather Forecast

Advertisements
Track Severe Weather on mobile